createdAt,value
2022-11-15T00:00:29.619Z,50.73
2022-11-15T00:03:53.835Z,62.47
2022-11-15T00:07:40.273Z,60.53
2022-11-15T00:10:57.589Z,60.70
2022-11-15T00:14:19.082Z,58.60
2022-11-15T00:17:41.841Z,60.03
2022-11-15T00:21:09.753Z,63.60
2022-11-15T00:24:31.418Z,59.77
2022-11-15T00:27:57.535Z,67.20
2022-11-15T00:31:19.299Z,64.93
2022-11-15T00:34:42.511Z,71.93
2022-11-15T00:38:04.581Z,61.60
2022-11-15T00:41:26.193Z,63.70
2022-11-15T00:44:47.882Z,60.27
2022-11-15T00:48:09.842Z,65.63
2022-11-15T00:51:32.560Z,66.47
2022-11-15T00:54:54.462Z,68.90
2022-11-15T00:58:16.191Z,67.83
2022-11-15T01:01:37.823Z,65.87
2022-11-15T01:04:59.492Z,69.23
2022-11-15T01:08:22.583Z,63.53
2022-11-15T01:11:44.660Z,62.60
2022-11-15T01:15:07.678Z,66.07
2022-11-15T01:18:29.084Z,62.37
2022-11-15T01:21:51.301Z,67.10
2022-11-15T01:25:14.069Z,64.63
2022-11-15T01:28:37.285Z,59.50
2022-11-15T01:31:58.609Z,58.67
2022-11-15T01:35:21.073Z,63.90
2022-11-15T01:38:42.790Z,66.93
2022-11-15T01:42:05.969Z,59.33
2022-11-15T01:45:28.501Z,64.30
2022-11-15T01:48:52.300Z,65.37
2022-11-15T01:52:19.656Z,56.07
2022-11-15T01:55:41.131Z,60.03
2022-11-15T01:59:06.877Z,59.03
2022-11-15T02:02:28.983Z,61.73
2022-11-15T02:05:52.269Z,63.63
2022-11-15T02:09:14.952Z,56.83
2022-11-15T02:12:36.843Z,67.60
2022-11-15T02:16:07.100Z,68.40
2022-11-15T02:19:56.873Z,61.63
2022-11-15T02:23:53.105Z,68.27
2022-11-15T02:27:40.263Z,65.03
2022-11-15T02:31:08.423Z,61.67
2022-11-15T02:34:41.837Z,64.67
2022-11-15T02:38:12.163Z,69.13
2022-11-15T02:41:43.047Z,60.93
2022-11-15T02:45:10.480Z,68.50
2022-11-15T02:48:34.379Z,65.33
2022-11-15T02:51:57.919Z,60.97
2022-11-15T02:55:32.589Z,61.67
2022-11-15T02:59:15.773Z,61.37
2022-11-15T03:03:05.861Z,61.33
2022-11-15T03:06:37.658Z,66.10
2022-11-15T03:10:08.229Z,61.00
2022-11-15T03:13:37.387Z,67.70
2022-11-15T03:17:05.125Z,62.87
2022-11-15T03:20:29.109Z,65.23
2022-11-15T03:23:53.675Z,63.33
2022-11-15T03:27:21.745Z,66.90
2022-11-15T03:30:45.519Z,60.43
2022-11-15T03:34:13.497Z,62.40
2022-11-15T03:37:43.382Z,60.20
2022-11-15T03:41:15.946Z,63.47
2022-11-15T03:44:47.714Z,57.60
2022-11-15T03:48:16.924Z,64.87
2022-11-15T03:51:38.637Z,62.33
2022-11-15T03:55:03.874Z,62.83
2022-11-15T03:58:27.012Z,62.97
2022-11-15T04:01:48.930Z,65.00
2022-11-15T04:05:10.434Z,61.53
2022-11-15T04:08:32.458Z,59.33
2022-11-15T04:11:54.686Z,61.43
2022-11-15T04:15:22.623Z,65.23
2022-11-15T04:18:44.333Z,65.17
2022-11-15T04:22:23.706Z,65.67
2022-11-15T04:25:46.753Z,68.10
2022-11-15T04:29:25.904Z,62.90
2022-11-15T04:32:48.937Z,69.47
2022-11-15T04:36:28.618Z,65.80
2022-11-15T04:39:50.514Z,70.83
2022-11-15T04:43:13.918Z,65.77
2022-11-15T04:46:35.336Z,73.63
2022-11-15T04:49:58.359Z,71.20
2022-11-15T04:53:20.192Z,70.00
2022-11-15T04:56:42.106Z,65.83
2022-11-15T05:00:05.617Z,78.30
2022-11-15T05:03:44.357Z,74.83
2022-11-15T05:07:07.678Z,69.83
2022-11-15T05:10:29.246Z,70.90
2022-11-15T05:13:51.929Z,66.27
2022-11-15T05:17:13.636Z,70.97
2022-11-15T05:20:35.824Z,72.23
2022-11-15T05:23:59.384Z,70.60
2022-11-15T05:27:20.834Z,71.77
2022-11-15T05:30:42.607Z,67.10
2022-11-15T05:34:06.890Z,69.97
2022-11-15T05:37:28.577Z,62.00
2022-11-15T05:40:51.776Z,67.97
2022-11-15T05:44:17.386Z,68.80
2022-11-15T05:47:40.962Z,68.07
2022-11-15T05:51:04.666Z,65.57
2022-11-15T05:54:27.473Z,66.13
2022-11-15T05:57:51.000Z,63.33
2022-11-15T06:01:12.877Z,65.17
2022-11-15T06:04:34.709Z,60.93
2022-11-15T06:07:59.794Z,58.13
2022-11-15T06:11:21.242Z,62.27
2022-11-15T06:14:44.047Z,60.23
2022-11-15T06:18:06.711Z,68.07
2022-11-15T06:21:30.076Z,62.07
2022-11-15T06:24:51.826Z,65.33
2022-11-15T06:28:13.521Z,71.37
2022-11-15T06:31:38.310Z,65.70
2022-11-15T06:35:00.123Z,71.03
2022-11-15T06:38:21.891Z,68.63
2022-11-15T06:41:43.529Z,66.60
2022-11-15T06:45:06.834Z,68.13
2022-11-15T06:48:30.007Z,72.57
2022-11-15T06:51:51.626Z,69.73
2022-11-15T06:55:13.421Z,70.53
2022-11-15T06:58:35.995Z,73.60
2022-11-15T07:01:57.503Z,69.73
2022-11-15T07:05:20.734Z,63.10
2022-11-15T07:08:43.543Z,66.87
2022-11-15T07:12:10.010Z,67.90
2022-11-15T07:15:32.249Z,69.97
2022-11-15T07:18:54.787Z,66.60
2022-11-15T07:22:17.557Z,70.87
2022-11-15T07:25:42.164Z,63.93
2022-11-15T07:29:04.156Z,64.97
2022-11-15T07:32:26.811Z,67.53
2022-11-15T07:35:50.186Z,67.90
2022-11-15T07:39:17.172Z,62.80
2022-11-15T07:42:54.632Z,74.20
2022-11-15T07:46:16.978Z,64.90
2022-11-15T07:49:38.543Z,71.43
2022-11-15T07:53:01.761Z,74.27
2022-11-15T07:56:30.091Z,73.47
2022-11-15T07:59:52.192Z,71.87
2022-11-15T08:03:21.304Z,71.47
2022-11-15T08:06:43.719Z,67.83
2022-11-15T08:10:07.033Z,74.10
2022-11-15T08:13:33.756Z,76.07
2022-11-15T08:16:56.925Z,76.20
2022-11-15T08:20:28.352Z,72.30
2022-11-15T08:23:51.160Z,70.47
2022-11-15T08:27:16.558Z,76.40
2022-11-15T08:30:44.048Z,74.13
2022-11-15T08:34:06.317Z,73.53
2022-11-15T08:37:27.814Z,72.67
2022-11-15T08:40:49.550Z,77.07
2022-11-15T08:44:11.241Z,77.17
2022-11-15T08:47:34.471Z,69.67
2022-11-15T08:50:56.735Z,68.50
2022-11-15T08:54:18.884Z,73.03
2022-11-15T08:57:46.811Z,70.30
2022-11-15T09:01:18.344Z,66.57
2022-11-15T09:04:51.684Z,73.57
2022-11-15T09:08:40.858Z,68.47
2022-11-15T09:12:01.190Z,65.93
2022-11-15T09:15:24.428Z,64.33
2022-11-15T09:18:46.257Z,60.67
2022-11-15T09:22:10.562Z,59.37
2022-11-15T09:25:33.310Z,67.23
2022-11-15T09:28:55.123Z,59.33
2022-11-15T09:32:16.725Z,59.87
2022-11-15T09:35:38.587Z,59.93
2022-11-15T09:39:01.976Z,62.10
2022-11-15T09:42:53.845Z,59.00
2022-11-15T09:46:22.690Z,54.60
2022-11-15T09:49:44.598Z,50.10
2022-11-15T09:53:00.999Z,58.93
2022-11-15T09:56:15.224Z,49.27
2022-11-15T10:03:31.673Z,47.57
2022-11-15T10:06:41.722Z,41.17
2022-11-15T10:09:51.253Z,39.93
2022-11-15T10:12:55.991Z,39.17
2022-11-15T10:16:13.223Z,37.93
2022-11-15T10:19:28.702Z,36.77
2022-11-15T10:22:38.882Z,39.57
2022-11-15T10:25:46.424Z,37.23
2022-11-15T10:28:52.337Z,41.93
2022-11-15T10:31:55.390Z,35.77
2022-11-15T10:34:58.307Z,37.03
2022-11-15T10:38:08.605Z,32.30
2022-11-15T10:41:18.134Z,34.97
2022-11-15T10:44:30.986Z,34.47
2022-11-15T10:47:39.894Z,32.57
2022-11-15T10:50:45.317Z,30.57
2022-11-15T10:53:49.022Z,27.83
2022-11-15T10:56:55.368Z,28.33
2022-11-15T11:00:04.484Z,27.83
2022-11-15T11:03:28.622Z,27.23
2022-11-15T11:06:34.363Z,29.00
2022-11-15T11:09:39.983Z,27.87
2022-11-15T11:12:48.587Z,25.20
2022-11-15T11:16:07.678Z,24.03
2022-11-15T11:19:33.663Z,26.70
2022-11-15T11:22:53.467Z,25.90
2022-11-15T11:26:13.874Z,27.43
2022-11-15T11:29:31.421Z,25.63
2022-11-15T11:32:59.749Z,26.23
2022-11-15T11:36:17.945Z,26.63
2022-11-15T11:39:32.754Z,24.37
2022-11-15T11:42:50.415Z,26.50
2022-11-15T11:46:16.862Z,27.13
2022-11-15T11:49:30.613Z,27.97
2022-11-15T11:52:41.397Z,27.03
2022-11-15T11:55:50.006Z,25.97
2022-11-15T11:58:56.250Z,25.17
2022-11-15T12:02:03.463Z,29.80
2022-11-15T12:05:16.386Z,26.63
2022-11-15T12:08:35.574Z,25.27
2022-11-15T12:11:53.194Z,24.50
2022-11-15T12:14:59.924Z,24.43
2022-11-15T12:18:03.740Z,27.13
2022-11-15T12:21:16.779Z,27.40
2022-11-15T12:24:27.879Z,28.47
2022-11-15T12:27:43.800Z,24.00
2022-11-15T12:30:55.940Z,24.27
2022-11-15T12:34:04.388Z,30.33
2022-11-15T12:37:59.312Z,26.73
2022-11-15T12:41:17.975Z,21.43
2022-11-15T12:45:00.925Z,22.30
2022-11-15T12:48:58.486Z,24.00
2022-11-15T12:52:11.296Z,27.67
2022-11-15T12:55:35.085Z,21.47
2022-11-15T12:58:47.734Z,22.90
2022-11-15T13:02:20.143Z,24.03
2022-11-15T13:06:08.454Z,19.90
2022-11-15T13:10:00.291Z,20.80
2022-11-15T13:13:07.019Z,20.40
2022-11-15T13:16:10.109Z,21.85
2022-11-15T13:19:13.547Z,20.73
2022-11-15T13:22:34.146Z,35.67
2022-11-15T13:26:03.675Z,18.77
2022-11-15T13:29:18.699Z,23.10
2022-11-15T13:32:22.521Z,19.90
2022-11-15T13:35:27.994Z,22.67
2022-11-15T13:38:35.160Z,21.00
2022-11-15T13:41:49.523Z,20.87
2022-11-15T13:45:02.245Z,20.97
2022-11-15T13:48:07.119Z,24.47
2022-11-15T13:51:19.414Z,23.70
2022-11-15T13:54:28.086Z,23.80
2022-11-15T13:57:39.549Z,20.87
2022-11-15T14:00:46.441Z,20.43
2022-11-15T14:03:58.226Z,23.07
2022-11-15T14:07:04.274Z,21.90
2022-11-15T14:10:27.444Z,23.57
2022-11-15T14:13:33.744Z,20.17
2022-11-15T14:16:40.532Z,19.03
2022-11-15T14:19:43.956Z,19.83
2022-11-15T14:22:54.813Z,19.33
2022-11-15T14:25:59.776Z,23.53
2022-11-15T14:29:24.462Z,20.80
2022-11-15T14:32:30.599Z,25.40
2022-11-15T14:35:35.529Z,24.00
2022-11-15T14:38:38.544Z,24.37
2022-11-15T14:41:41.945Z,20.33
2022-11-15T14:44:46.266Z,30.27
2022-11-15T14:47:51.045Z,24.93
2022-11-15T14:50:54.076Z,29.57
2022-11-15T14:53:57.214Z,24.30
2022-11-15T14:57:00.182Z,27.00
2022-11-15T15:00:04.129Z,22.97
2022-11-15T15:03:17.345Z,25.80
2022-11-15T15:06:20.769Z,27.70
2022-11-15T15:09:24.229Z,26.17
2022-11-15T15:12:27.194Z,25.10
2022-11-15T15:15:35.451Z,23.73
2022-11-15T15:18:39.733Z,26.37
2022-11-15T15:21:43.185Z,25.03
2022-11-15T15:24:47.346Z,23.23
2022-11-15T15:27:51.461Z,29.27
2022-11-15T15:30:54.626Z,23.30
2022-11-15T15:34:02.406Z,23.23
2022-11-15T15:37:26.737Z,26.33
2022-11-15T15:40:32.152Z,26.67
2022-11-15T15:43:35.127Z,25.30
2022-11-15T15:46:38.730Z,27.07
2022-11-15T15:49:43.962Z,26.73
2022-11-15T15:52:46.914Z,26.47
2022-11-15T15:55:49.882Z,27.93
2022-11-15T15:58:53.791Z,30.93
2022-11-15T16:01:56.791Z,32.83
2022-11-15T16:05:01.178Z,25.53
2022-11-15T16:08:05.770Z,34.33
2022-11-15T16:11:10.517Z,31.27
2022-11-15T16:14:14.027Z,32.83
2022-11-15T16:17:21.316Z,33.57
2022-11-15T16:20:37.091Z,29.67
2022-11-15T16:23:40.116Z,38.77
2022-11-15T16:26:43.645Z,36.40
2022-11-15T16:29:47.797Z,32.27
2022-11-15T16:32:50.831Z,38.43
2022-11-15T16:35:55.258Z,35.07
2022-11-15T16:38:58.707Z,39.10
2022-11-15T16:42:03.421Z,35.07
2022-11-15T16:45:07.761Z,38.17
2022-11-15T16:48:23.398Z,42.27
2022-11-15T16:51:28.000Z,40.63
2022-11-15T16:54:31.556Z,41.80
2022-11-15T16:57:34.722Z,45.63
2022-11-15T17:00:37.981Z,50.47
2022-11-15T17:03:40.937Z,50.20
2022-11-15T17:06:49.230Z,56.10
2022-11-15T17:09:52.470Z,56.47
2022-11-15T17:12:59.851Z,57.63
2022-11-15T17:16:11.822Z,61.57
2022-11-15T17:19:16.240Z,59.67
2022-11-15T17:22:20.498Z,64.87
2022-11-15T17:25:24.045Z,64.80
2022-11-15T17:28:27.010Z,66.20
2022-11-15T17:31:33.663Z,63.43
2022-11-15T17:34:36.933Z,63.50
2022-11-15T17:37:41.194Z,66.40
2022-11-15T17:40:44.417Z,60.90
2022-11-15T17:43:47.709Z,64.87
2022-11-15T17:46:50.663Z,68.40
2022-11-15T17:49:56.991Z,67.50
2022-11-15T17:53:01.849Z,70.73
2022-11-15T17:56:07.283Z,65.23
2022-11-15T17:59:14.789Z,59.67
2022-11-15T18:02:20.343Z,64.87
2022-11-15T18:05:23.736Z,59.43
2022-11-15T18:08:28.115Z,64.57
2022-11-15T18:11:33.484Z,66.57
2022-11-15T18:14:36.676Z,61.10
2022-11-15T18:17:39.805Z,63.37
2022-11-15T18:20:42.808Z,66.93
2022-11-15T18:23:48.143Z,65.43
2022-11-15T18:26:51.558Z,65.93
2022-11-15T18:29:54.534Z,68.17
2022-11-15T18:32:57.505Z,67.97
2022-11-15T18:36:02.515Z,64.57
2022-11-15T18:39:07.188Z,63.03
2022-11-15T18:42:10.277Z,63.13
2022-11-15T18:45:14.451Z,58.97
2022-11-15T18:48:17.418Z,66.97
2022-11-15T18:51:22.635Z,66.07
2022-11-15T18:54:31.072Z,60.03
2022-11-15T18:57:34.602Z,64.33
2022-11-15T19:00:37.693Z,66.73
2022-11-15T19:03:44.148Z,70.60
2022-11-15T19:06:49.491Z,72.03
2022-11-15T19:09:53.929Z,82.57
2022-11-15T19:12:57.673Z,76.07
2022-11-15T19:16:02.590Z,73.77
2022-11-15T19:19:07.982Z,76.13
2022-11-15T19:22:11.102Z,73.27
2022-11-15T19:25:15.430Z,77.83
2022-11-15T19:28:19.383Z,75.10
2022-11-15T19:31:24.612Z,86.60
2022-11-15T19:34:27.551Z,72.07
2022-11-15T19:37:30.617Z,75.13
2022-11-15T19:40:35.408Z,79.17
2022-11-15T19:43:38.614Z,74.53
2022-11-15T19:46:42.639Z,77.00
2022-11-15T19:49:46.543Z,73.97
2022-11-15T19:52:49.798Z,75.67
2022-11-15T19:55:59.105Z,74.27
2022-11-15T19:59:03.517Z,70.77
2022-11-15T20:02:06.460Z,78.17
2022-11-15T20:05:15.565Z,78.10
2022-11-15T20:08:21.312Z,77.73
2022-11-15T20:11:27.973Z,75.27
2022-11-15T20:14:32.135Z,70.43
2022-11-15T20:17:35.372Z,74.77
2022-11-15T20:20:38.434Z,75.53
2022-11-15T20:23:41.909Z,77.60
2022-11-15T20:26:46.928Z,70.23
2022-11-15T20:29:51.793Z,70.53
2022-11-15T20:32:55.123Z,74.57
2022-11-15T20:35:58.200Z,67.67
2022-11-15T20:39:01.815Z,78.17
2022-11-15T20:42:06.578Z,73.03
2022-11-15T20:45:10.776Z,75.80
2022-11-15T20:48:14.785Z,70.93
2022-11-15T20:51:19.576Z,78.90
2022-11-15T20:54:22.807Z,72.77
2022-11-15T20:57:27.189Z,73.53
2022-11-15T21:00:30.277Z,67.50
2022-11-15T21:03:33.687Z,70.27
2022-11-15T21:06:36.714Z,70.50
2022-11-15T21:09:57.267Z,65.67
2022-11-15T21:13:01.520Z,63.63
2022-11-15T21:16:05.558Z,77.83
2022-11-15T21:19:08.663Z,72.57
2022-11-15T21:22:15.060Z,71.30
2022-11-15T21:25:18.204Z,76.90
2022-11-15T21:28:24.325Z,66.03
2022-11-15T21:31:27.476Z,73.27
2022-11-15T21:34:30.406Z,76.67
2022-11-15T21:37:33.347Z,73.07
2022-11-15T21:40:36.436Z,69.03
2022-11-15T21:43:40.734Z,67.83
2022-11-15T21:46:43.717Z,67.87
2022-11-15T21:49:47.214Z,71.17
2022-11-15T21:52:50.146Z,79.77
2022-11-15T21:55:53.306Z,77.50
2022-11-15T21:58:58.753Z,80.17
2022-11-15T22:02:15.585Z,70.87
2022-11-15T22:05:18.510Z,85.90
2022-11-15T22:08:21.886Z,74.43
2022-11-15T22:11:24.975Z,82.37
2022-11-15T22:14:29.392Z,81.23
2022-11-15T22:17:46.326Z,79.10
2022-11-15T22:20:56.485Z,68.17
2022-11-15T22:23:59.692Z,77.77
2022-11-15T22:27:02.618Z,83.27
2022-11-15T22:30:11.543Z,73.57
2022-11-15T22:33:15.614Z,82.53
2022-11-15T22:36:18.692Z,75.70
2022-11-15T22:39:21.628Z,76.60
2022-11-15T22:42:24.709Z,81.43
2022-11-15T22:45:28.988Z,81.00
2022-11-15T22:48:35.052Z,81.40
2022-11-15T22:51:40.399Z,84.90
2022-11-15T22:54:46.003Z,77.33
2022-11-15T22:57:48.986Z,82.63
2022-11-15T23:00:56.573Z,87.27
2022-11-15T23:03:59.770Z,89.67
2022-11-15T23:07:02.861Z,85.07
2022-11-15T23:10:20.602Z,77.53
2022-11-15T23:13:24.484Z,83.20
2022-11-15T23:16:35.172Z,82.63
2022-11-15T23:19:38.106Z,85.53
2022-11-15T23:22:49.932Z,88.37
2022-11-15T23:25:59.707Z,79.20
2022-11-15T23:29:02.819Z,86.80
2022-11-15T23:32:30.618Z,84.70
2022-11-15T23:35:33.777Z,89.77
2022-11-15T23:38:38.171Z,81.10
2022-11-15T23:41:41.152Z,85.47
2022-11-15T23:44:44.324Z,75.27
2022-11-15T23:47:48.614Z,96.43
2022-11-15T23:50:51.548Z,88.40
2022-11-15T23:53:54.511Z,89.80
2022-11-15T23:56:57.627Z,78.13
